New Braunfels, TX

11:12 AM CST on January 30, 2015 (GMT -0600)
Gruene Crossing | Change Station
CLOSE
Current Station
Personal Weather Station
Location: New Braunfels, TX
Elevation: 701 ft
Nearby Weather Stations

Elev 701 ft 29.73 °N, 98.10 °W | Updated 8 seconds ago

Partly Cloudy
Partly Cloudy
54.5 °F
Feels Like 54.5 °F
N
7.6
Wind Variable Wind from North
Gusts 7.6 mph

Today
High -- | Low -- °F
--% Chance of Precip.
Yesterday
High -- | Low -- °F
Precip. -- in
7:23 AM 6:08 PM
Waxing Gibbous, 84% visible
Pressure 30.42 in
Visibility 10.0 miles
Clouds Clear
Dew Point 5 °F
Humidity 13%
Rainfall 0.00 in
Snow Depth Not available.
UV 4 out of 12
Pollen 8.20 out of 12
Air Quality Not available.
Flu Activity Not available.
METAR KBAZ 301651Z 05014KT 10SM CLR 12/02 A3043 RMK AO2 SLP300 T01220022

More Conditions Fewer Conditions

Pressure 30.42 in
Visibility 10.0 miles
Clouds Clear
Dew Point 5 °F
Humidity 13%
Rainfall 0.00 in
Snow Depth Not available.
UV 4 out of 12
Pollen 8.20 out of 12
Air Quality Not available.
Flu Activity Not available.
METAR KBAZ 301651Z 05014KT 10SM CLR 12/02 A3043 RMK AO2 SLP300 T01220022

More Conditions Fewer Conditions

10-Day Weather Forecast

Almanac

Astronomy

Jan. 30, 2015 Rise Set
Actual Time
Civil Twilight
Nautical Twilight
Astronomical Twilight
Moon
Length of Visible Light
Length of Day
Tomorrow will be .
, % of the Moon is Illuminated

Today's Extremes

State Highs State Lows

Community

WunderPhotos

Upload Photos

1,791,825 photos uploaded!

WunderBlogs® & News

Nearby

Air Quality

  Air Quality AQ Index Pollutant
Not available.

Snow Depth

Station Depth Elevation

Earthquake Activity

City Distance Mag. Time & Date
Minimum magnitude displayed is 2.5.

Coastal Water Temperatures

Place Temperature

Nearby Weather Stations